createdAt,value
2018-06-24T00:00:57.359Z,0.00
2018-06-24T00:01:57.253Z,0.00
2018-06-24T00:02:57.178Z,0.00
2018-06-24T00:03:57.092Z,0.00
2018-06-24T00:04:57.017Z,0.00
2018-06-24T00:05:56.934Z,0.00
2018-06-24T00:06:56.861Z,0.00
2018-06-24T00:07:56.767Z,0.00
2018-06-24T00:08:56.692Z,0.00
2018-06-24T00:09:56.611Z,0.00
2018-06-24T00:10:56.534Z,0.00
2018-06-24T00:11:56.445Z,0.00
2018-06-24T00:12:56.382Z,0.00
2018-06-24T00:13:56.341Z,0.00
2018-06-24T00:14:56.191Z,0.00
2018-06-24T00:15:56.122Z,0.00
2018-06-24T00:16:56.038Z,0.00
2018-06-24T00:17:55.956Z,0.00
2018-06-24T00:18:55.869Z,0.00
2018-06-24T00:19:55.791Z,0.00
2018-06-24T00:20:55.704Z,0.00
2018-06-24T00:21:55.637Z,0.00
2018-06-24T00:22:55.549Z,0.00
2018-06-24T00:23:55.470Z,0.00
2018-06-24T00:24:55.384Z,0.00
2018-06-24T00:25:55.292Z,0.00
2018-06-24T00:26:55.232Z,0.00
2018-06-24T00:27:55.133Z,0.00
2018-06-24T00:28:55.060Z,0.00
2018-06-24T00:29:54.975Z,0.00
2018-06-24T00:30:54.899Z,0.00
2018-06-24T00:31:54.806Z,0.00
2018-06-24T00:32:54.730Z,0.00
2018-06-24T00:33:54.648Z,0.00
2018-06-24T00:34:54.571Z,0.00
2018-06-24T00:35:54.487Z,0.00
2018-06-24T00:36:54.401Z,0.00
2018-06-24T00:37:54.319Z,0.00
2018-06-24T00:38:54.237Z,0.00
2018-06-24T00:39:54.164Z,0.00
2018-06-24T00:40:54.074Z,0.00
2018-06-24T00:41:53.995Z,0.00
2018-06-24T00:42:53.920Z,0.00
2018-06-24T00:43:53.831Z,0.00
2018-06-24T00:44:53.757Z,0.00
2018-06-24T00:45:53.675Z,0.00
2018-06-24T00:46:53.586Z,0.00
2018-06-24T00:47:53.498Z,0.00
2018-06-24T00:48:53.421Z,0.00
2018-06-24T00:49:53.339Z,0.00
2018-06-24T00:50:53.265Z,0.00
2018-06-24T00:51:53.173Z,0.00
2018-06-24T00:52:53.098Z,0.00
2018-06-24T00:53:53.019Z,0.00
2018-06-24T00:54:52.932Z,0.00
2018-06-24T00:55:52.861Z,0.00
2018-06-24T00:56:52.776Z,0.00
2018-06-24T00:57:52.684Z,0.00
2018-06-24T00:58:52.596Z,0.00
2018-06-24T00:59:52.522Z,0.00
2018-06-24T01:00:52.459Z,0.00
2018-06-24T01:01:52.365Z,0.00
2018-06-24T01:02:52.277Z,0.00
2018-06-24T01:03:52.199Z,0.00
2018-06-24T01:04:52.120Z,0.00
2018-06-24T01:05:52.040Z,0.00
2018-06-24T01:06:51.952Z,0.00
2018-06-24T01:07:51.877Z,0.00
2018-06-24T01:08:51.793Z,0.00
2018-06-24T01:09:51.700Z,0.00
2018-06-24T01:10:51.628Z,0.00
2018-06-24T01:11:51.540Z,0.00
2018-06-24T01:12:51.465Z,0.00
2018-06-24T01:13:51.373Z,0.00
2018-06-24T01:14:51.301Z,0.00
2018-06-24T01:15:51.210Z,0.00
2018-06-24T01:16:51.140Z,0.00
2018-06-24T01:17:51.051Z,0.00
2018-06-24T01:18:50.978Z,0.00
2018-06-24T01:19:50.888Z,0.00
2018-06-24T01:20:50.815Z,0.00
2018-06-24T01:21:50.729Z,0.00
2018-06-24T01:22:50.641Z,0.00
2018-06-24T01:23:50.565Z,0.00
2018-06-24T01:24:50.476Z,0.00
2018-06-24T01:25:50.397Z,0.00
2018-06-24T01:26:50.312Z,0.00
2018-06-24T01:27:50.243Z,0.00
2018-06-24T01:28:50.154Z,0.00
2018-06-24T01:29:50.075Z,0.00
2018-06-24T01:30:49.989Z,0.00
2018-06-24T01:31:49.914Z,0.00
2018-06-24T01:32:49.823Z,0.00
2018-06-24T01:33:49.741Z,0.00
2018-06-24T01:34:49.666Z,0.00
2018-06-24T01:35:49.576Z,0.00
2018-06-24T01:36:49.501Z,0.00
2018-06-24T01:37:49.419Z,0.00
2018-06-24T01:38:49.343Z,0.00
2018-06-24T01:39:49.253Z,0.00
2018-06-24T01:40:49.182Z,0.00
2018-06-24T01:41:49.088Z,0.00
2018-06-24T01:42:49.012Z,0.00
2018-06-24T01:43:48.928Z,0.00
2018-06-24T01:44:48.853Z,0.00
2018-06-24T01:45:48.767Z,0.00
2018-06-24T01:46:48.675Z,0.00
2018-06-24T01:47:48.602Z,0.00
2018-06-24T01:48:48.516Z,0.00
2018-06-24T01:49:48.447Z,0.00
2018-06-24T01:50:48.358Z,0.00
2018-06-24T01:51:48.278Z,0.00
2018-06-24T01:52:48.189Z,0.00
2018-06-24T01:53:48.121Z,0.00
2018-06-24T01:54:48.043Z,0.00
2018-06-24T01:55:47.957Z,0.00
2018-06-24T01:56:47.871Z,0.00
2018-06-24T01:57:47.779Z,0.00
2018-06-24T01:58:47.717Z,0.00
2018-06-24T01:59:47.621Z,0.00
2018-06-24T02:00:47.546Z,0.00
2018-06-24T02:01:47.455Z,0.00
2018-06-24T02:02:47.379Z,0.00
2018-06-24T02:03:47.290Z,0.00
2018-06-24T02:04:47.221Z,0.00
2018-06-24T02:05:47.132Z,0.00
2018-06-24T02:06:47.057Z,0.00
2018-06-24T02:07:46.969Z,0.00
2018-06-24T02:08:46.895Z,0.00
2018-06-24T02:09:46.809Z,0.00
2018-06-24T02:10:46.728Z,0.00
2018-06-24T02:11:46.645Z,0.00
2018-06-24T02:12:46.557Z,0.00
2018-06-24T02:13:46.491Z,0.00
2018-06-24T02:14:46.391Z,0.00
2018-06-24T02:15:46.325Z,0.00
2018-06-24T02:16:46.234Z,0.00
2018-06-24T02:17:46.153Z,0.00
2018-06-24T02:18:46.068Z,0.00
2018-06-24T02:19:46.007Z,0.00
2018-06-24T02:20:45.906Z,0.00
2018-06-24T02:21:45.828Z,0.00
2018-06-24T02:22:45.749Z,0.00
2018-06-24T02:23:45.654Z,0.00
2018-06-24T02:24:45.580Z,0.00
2018-06-24T02:25:45.496Z,0.00
2018-06-24T02:26:45.422Z,0.00
2018-06-24T02:27:45.336Z,0.00
2018-06-24T02:28:45.261Z,0.00
2018-06-24T02:29:45.172Z,0.00
2018-06-24T02:30:45.083Z,0.00
2018-06-24T02:31:45.006Z,0.00
2018-06-24T02:32:44.925Z,0.00
2018-06-24T02:33:44.847Z,0.00
2018-06-24T02:34:44.759Z,0.00
2018-06-24T02:35:44.689Z,0.00
2018-06-24T02:36:44.601Z,0.00
2018-06-24T02:37:44.524Z,0.00
2018-06-24T02:38:44.433Z,0.00
2018-06-24T02:39:44.350Z,0.00
2018-06-24T02:40:44.273Z,0.00
2018-06-24T02:41:44.191Z,0.00
2018-06-24T02:42:44.106Z,0.00
2018-06-24T02:43:44.022Z,0.00
2018-06-24T02:44:43.946Z,0.00
2018-06-24T02:45:43.863Z,0.00
2018-06-24T02:46:43.788Z,0.00
2018-06-24T02:47:43.697Z,0.00
2018-06-24T02:48:43.623Z,0.00
2018-06-24T02:49:43.538Z,5.63
2018-06-24T02:50:43.452Z,5.63
2018-06-24T02:51:43.374Z,5.63
2018-06-24T02:52:43.286Z,0.00
2018-06-24T02:53:43.263Z,0.00
2018-06-24T02:54:43.121Z,5.63
2018-06-24T02:55:43.054Z,5.63
2018-06-24T02:56:42.964Z,5.63
2018-06-24T02:57:42.872Z,5.63
2018-06-24T02:58:42.803Z,5.63
2018-06-24T02:59:42.709Z,5.63
2018-06-24T03:00:42.633Z,5.63
2018-06-24T03:01:42.554Z,5.63
2018-06-24T03:02:42.476Z,5.63
2018-06-24T03:03:42.399Z,5.63
2018-06-24T03:04:42.308Z,5.63
2018-06-24T03:05:42.226Z,5.63
2018-06-24T03:06:42.140Z,5.63
2018-06-24T03:07:42.065Z,5.63
2018-06-24T03:08:41.978Z,5.63
2018-06-24T03:09:41.899Z,5.63
2018-06-24T03:10:41.811Z,11.25
2018-06-24T03:11:41.738Z,11.25
2018-06-24T03:12:41.663Z,11.25
2018-06-24T03:13:41.572Z,11.25
2018-06-24T03:14:41.497Z,11.25
2018-06-24T03:15:41.412Z,11.25
2018-06-24T03:16:41.325Z,16.88
2018-06-24T03:17:41.244Z,16.88
2018-06-24T03:18:41.169Z,16.88
2018-06-24T03:19:41.075Z,16.88
2018-06-24T03:20:40.999Z,16.88
2018-06-24T03:21:40.916Z,16.88
2018-06-24T03:22:40.842Z,16.88
2018-06-24T03:23:40.752Z,22.50
2018-06-24T03:24:40.676Z,28.13
2018-06-24T03:25:40.587Z,22.50
2018-06-24T03:26:40.499Z,22.50
2018-06-24T03:27:40.430Z,28.13
2018-06-24T03:28:40.354Z,22.50
2018-06-24T03:29:40.262Z,22.50
2018-06-24T03:30:40.179Z,22.50
2018-06-24T03:31:40.099Z,28.13
2018-06-24T03:32:40.014Z,22.50
2018-06-24T03:33:39.930Z,22.50
2018-06-24T03:34:39.853Z,22.50
2018-06-24T03:35:39.764Z,22.50
2018-06-24T03:36:39.689Z,22.50
2018-06-24T03:37:39.606Z,22.50
2018-06-24T03:38:39.531Z,22.50
2018-06-24T03:39:39.440Z,16.88
2018-06-24T03:40:39.381Z,16.88
2018-06-24T03:41:39.275Z,16.88
2018-06-24T03:42:39.204Z,16.88
2018-06-24T03:43:39.118Z,16.88
2018-06-24T03:44:39.034Z,22.50
2018-06-24T03:45:38.954Z,22.50
2018-06-24T03:46:38.864Z,28.13
2018-06-24T03:47:38.787Z,22.50
2018-06-24T03:48:38.701Z,28.13
2018-06-24T03:49:38.634Z,28.13
2018-06-24T03:50:38.547Z,28.13
2018-06-24T03:51:38.463Z,33.75
2018-06-24T03:52:38.376Z,28.13
2018-06-24T03:53:38.293Z,50.63
2018-06-24T03:54:38.231Z,45.00
2018-06-24T03:55:38.133Z,39.38
2018-06-24T03:56:38.066Z,39.38
2018-06-24T03:57:37.967Z,45.00
2018-06-24T03:58:37.890Z,45.00
2018-06-24T03:59:37.810Z,50.63
2018-06-24T04:00:37.731Z,56.25
2018-06-24T04:01:37.638Z,56.25
2018-06-24T04:02:37.564Z,61.88
2018-06-24T04:03:37.480Z,56.25
2018-06-24T04:04:37.403Z,73.13
2018-06-24T04:05:37.324Z,73.13
2018-06-24T04:06:37.235Z,67.50
2018-06-24T04:07:37.155Z,90.00
2018-06-24T04:08:37.069Z,90.00
2018-06-24T04:09:36.999Z,78.75
2018-06-24T04:10:36.910Z,84.38
2018-06-24T04:11:36.832Z,90.00
2018-06-24T04:12:36.744Z,95.63
2018-06-24T04:13:36.665Z,95.63
2018-06-24T04:14:36.578Z,78.75
2018-06-24T04:15:36.498Z,84.38
2018-06-24T04:16:36.423Z,90.00
2018-06-24T04:17:36.331Z,106.88
2018-06-24T04:18:36.264Z,95.63
2018-06-24T04:19:36.166Z,90.00
2018-06-24T04:20:36.091Z,90.00
2018-06-24T04:21:36.010Z,84.38
2018-06-24T04:22:35.933Z,90.00
2018-06-24T04:23:35.841Z,95.63
2018-06-24T04:24:35.768Z,90.00
2018-06-24T04:25:35.695Z,90.00
2018-06-24T04:26:35.598Z,90.00
2018-06-24T04:27:35.536Z,84.38
2018-06-24T04:28:35.461Z,101.25
2018-06-24T04:29:35.361Z,118.13
2018-06-24T04:30:35.269Z,123.75
2018-06-24T04:31:35.199Z,106.88
2018-06-24T04:32:35.110Z,118.13
2018-06-24T04:33:35.031Z,140.63
2018-06-24T04:34:34.942Z,140.63
2018-06-24T04:35:34.870Z,140.63
2018-06-24T04:36:34.783Z,123.75
2018-06-24T04:37:34.712Z,101.25
2018-06-24T04:38:34.637Z,123.75
2018-06-24T04:39:34.550Z,90.00
2018-06-24T04:40:34.467Z,84.38
2018-06-24T04:41:34.384Z,95.63
2018-06-24T04:42:34.295Z,101.25
2018-06-24T04:43:34.207Z,101.25
2018-06-24T04:44:34.132Z,112.50
2018-06-24T04:45:34.048Z,118.13
2018-06-24T04:46:33.980Z,101.25
2018-06-24T04:47:33.885Z,106.88
2018-06-24T04:48:33.810Z,112.50
2018-06-24T04:49:33.730Z,135.00
2018-06-24T04:50:33.650Z,129.38
2018-06-24T04:51:33.570Z,140.63
2018-06-24T04:52:33.488Z,140.63
2018-06-24T04:53:33.395Z,129.38
2018-06-24T04:54:33.319Z,135.00
2018-06-24T04:55:33.238Z,112.50
2018-06-24T04:56:33.151Z,118.13
2018-06-24T04:57:33.083Z,129.38
2018-06-24T04:58:32.984Z,140.63
2018-06-24T04:59:32.913Z,106.88
2018-06-24T05:00:32.823Z,151.88
2018-06-24T05:01:32.755Z,106.88
2018-06-24T05:02:32.669Z,112.50
2018-06-24T05:03:32.584Z,146.25
2018-06-24T05:04:32.496Z,146.25
2018-06-24T05:05:32.425Z,118.13
2018-06-24T05:06:32.382Z,118.13
2018-06-24T05:07:32.276Z,101.25
2018-06-24T05:08:32.178Z,101.25
2018-06-24T05:09:32.101Z,118.13
2018-06-24T05:10:32.012Z,118.13
2018-06-24T05:11:31.941Z,106.88
2018-06-24T05:12:31.853Z,106.88
2018-06-24T05:13:31.763Z,112.50
2018-06-24T05:14:31.687Z,112.50
2018-06-24T05:15:31.598Z,106.88
2018-06-24T05:16:31.521Z,101.25
2018-06-24T05:17:31.440Z,118.13
2018-06-24T05:18:31.364Z,118.13
2018-06-24T05:19:31.274Z,135.00
2018-06-24T05:20:31.201Z,123.75
2018-06-24T05:21:31.128Z,151.88
2018-06-24T05:22:31.042Z,163.13
2018-06-24T05:23:30.965Z,146.25
2018-06-24T05:24:30.877Z,163.13
2018-06-24T05:25:30.786Z,151.88
2018-06-24T05:26:30.711Z,157.50
2018-06-24T05:27:30.664Z,174.38
2018-06-24T05:28:30.567Z,163.13
2018-06-24T05:29:30.465Z,168.75
2018-06-24T05:30:30.377Z,157.50
2018-06-24T05:31:30.301Z,168.75
2018-06-24T05:32:30.215Z,151.88
2018-06-24T05:33:30.145Z,168.75
2018-06-24T05:34:30.055Z,157.50
2018-06-24T05:35:29.974Z,163.13
2018-06-24T05:36:29.888Z,168.75
2018-06-24T05:37:29.817Z,174.38
2018-06-24T05:38:29.728Z,174.38
2018-06-24T05:39:29.655Z,196.88
2018-06-24T05:40:29.569Z,253.13
2018-06-24T05:41:29.490Z,258.75
2018-06-24T05:42:29.408Z,247.50
2018-06-24T05:43:29.330Z,213.75
2018-06-24T05:44:29.248Z,230.63
2018-06-24T05:45:29.152Z,196.88
2018-06-24T05:46:29.075Z,213.75
2018-06-24T05:47:28.996Z,208.13
2018-06-24T05:48:28.917Z,208.13
2018-06-24T05:49:28.832Z,219.38
2018-06-24T05:50:28.757Z,219.38
2018-06-24T05:51:28.663Z,225.00
2018-06-24T05:52:28.589Z,213.75
2018-06-24T05:53:28.505Z,236.25
2018-06-24T05:54:28.431Z,213.75
2018-06-24T05:55:28.347Z,225.00
2018-06-24T05:56:28.270Z,247.50
2018-06-24T05:57:28.178Z,253.13
2018-06-24T05:58:28.104Z,258.75
2018-06-24T05:59:28.023Z,258.75
2018-06-24T06:00:27.947Z,253.13
2018-06-24T06:01:27.854Z,241.88
2018-06-24T06:02:27.780Z,253.13
2018-06-24T06:03:27.691Z,309.38
2018-06-24T06:04:27.616Z,275.63
2018-06-24T06:05:27.532Z,225.00
2018-06-24T06:06:27.463Z,258.75
2018-06-24T06:07:27.368Z,264.38
2018-06-24T06:08:27.294Z,320.63
2018-06-24T06:09:27.209Z,354.38
2018-06-24T06:10:27.175Z,331.88
2018-06-24T06:11:27.046Z,320.63
2018-06-24T06:12:26.970Z,292.50
2018-06-24T06:13:26.878Z,309.38
2018-06-24T06:14:26.807Z,258.75
2018-06-24T06:15:26.721Z,196.88
2018-06-24T06:16:26.647Z,180.00
2018-06-24T06:17:26.553Z,151.88
2018-06-24T06:18:26.480Z,174.38
2018-06-24T06:19:26.394Z,213.75
2018-06-24T06:20:26.341Z,180.00
2018-06-24T06:21:26.238Z,241.88
2018-06-24T06:22:26.160Z,258.75
2018-06-24T06:23:26.068Z,213.75
2018-06-24T06:24:25.993Z,253.13
2018-06-24T06:25:25.908Z,225.00
2018-06-24T06:26:25.834Z,185.63
2018-06-24T06:27:25.749Z,208.13
2018-06-24T06:28:25.676Z,208.13
2018-06-24T06:29:25.582Z,191.25
2018-06-24T06:30:25.569Z,180.00
2018-06-24T06:31:25.426Z,185.63
2018-06-24T06:32:25.349Z,180.00
2018-06-24T06:33:25.258Z,151.88
2018-06-24T06:34:25.182Z,140.63
2018-06-24T06:35:25.094Z,168.75
2018-06-24T06:36:25.020Z,225.00
2018-06-24T06:37:24.935Z,241.88
2018-06-24T06:38:24.861Z,253.13
2018-06-24T06:39:24.771Z,360.00
2018-06-24T06:40:24.696Z,354.38
2018-06-24T06:41:24.612Z,331.88
2018-06-24T06:42:24.539Z,326.25
2018-06-24T06:43:24.449Z,253.13
2018-06-24T06:44:24.377Z,298.13
2018-06-24T06:45:24.405Z,309.38
2018-06-24T06:46:24.207Z,343.13
2018-06-24T06:47:24.124Z,292.50
2018-06-24T06:48:24.044Z,371.25
2018-06-24T06:49:23.961Z,388.13
2018-06-24T06:50:23.886Z,309.38
2018-06-24T06:51:23.801Z,371.25
2018-06-24T06:52:23.727Z,320.63
2018-06-24T06:53:23.635Z,365.63
2018-06-24T06:54:23.559Z,275.63
2018-06-24T06:55:23.477Z,303.75
2018-06-24T06:56:23.400Z,309.38
2018-06-24T06:57:23.321Z,348.75
2018-06-24T06:58:23.233Z,399.38
2018-06-24T06:59:23.149Z,360.00
2018-06-24T07:00:23.074Z,365.63
2018-06-24T07:01:22.989Z,326.25
2018-06-24T07:02:22.927Z,286.88
2018-06-24T07:03:22.878Z,371.25
2018-06-24T07:04:22.749Z,281.25
2018-06-24T07:05:22.665Z,315.00
2018-06-24T07:06:22.594Z,331.88
2018-06-24T07:07:22.502Z,472.50
2018-06-24T07:08:22.426Z,455.63
2018-06-24T07:09:22.339Z,478.13
2018-06-24T07:10:22.259Z,416.25
2018-06-24T07:11:22.179Z,354.38
2018-06-24T07:12:22.103Z,303.75
2018-06-24T07:13:22.012Z,303.75
2018-06-24T07:14:21.937Z,354.38
2018-06-24T07:15:21.849Z,320.63
2018-06-24T07:16:21.773Z,365.63
2018-06-24T07:17:21.689Z,388.13
2018-06-24T07:18:21.614Z,393.75
2018-06-24T07:19:21.523Z,393.75
2018-06-24T07:20:21.448Z,405.00
2018-06-24T07:21:21.364Z,495.00
2018-06-24T07:22:21.289Z,371.25
2018-06-24T07:23:21.205Z,416.25
2018-06-24T07:24:21.135Z,528.75
2018-06-24T07:25:21.042Z,624.38
2018-06-24T07:26:20.964Z,613.13
2018-06-24T07:27:20.878Z,517.50
2018-06-24T07:28:20.806Z,483.75
2018-06-24T07:29:20.724Z,545.63
2018-06-24T07:30:20.640Z,523.13
2018-06-24T07:31:20.551Z,562.50
2018-06-24T07:32:20.477Z,500.63
2018-06-24T07:33:20.461Z,618.75
2018-06-24T07:34:20.317Z,562.50
2018-06-24T07:35:20.238Z,562.50
2018-06-24T07:36:20.152Z,500.63
2018-06-24T07:37:20.082Z,506.25
2018-06-24T07:38:19.995Z,444.38
2018-06-24T07:39:19.968Z,461.25
2018-06-24T07:40:19.829Z,421.88
2018-06-24T07:41:19.750Z,613.13
2018-06-24T07:42:19.662Z,483.75
2018-06-24T07:43:19.593Z,495.00
2018-06-24T07:44:19.506Z,461.25
2018-06-24T07:45:19.428Z,528.75
2018-06-24T07:46:19.341Z,444.38
2018-06-24T07:47:19.277Z,450.00
2018-06-24T07:48:19.188Z,478.13
2018-06-24T07:49:19.111Z,343.13
2018-06-24T07:50:19.087Z,376.88
2018-06-24T07:51:18.940Z,348.75
2018-06-24T07:52:18.879Z,236.25
2018-06-24T07:53:18.783Z,337.50
2018-06-24T07:54:18.721Z,298.13
2018-06-24T07:55:18.618Z,371.25
2018-06-24T07:56:18.543Z,365.63
2018-06-24T07:57:18.468Z,365.63
2018-06-24T07:58:18.381Z,410.63
2018-06-24T07:59:18.300Z,489.38
2018-06-24T08:00:18.220Z,444.38
2018-06-24T08:01:18.129Z,382.50
2018-06-24T08:02:18.054Z,585.00
2018-06-24T08:03:18.032Z,444.38
2018-06-24T08:04:17.889Z,455.63
2018-06-24T08:05:17.880Z,478.13
2018-06-24T08:06:17.732Z,472.50
2018-06-24T08:07:17.653Z,444.38
2018-06-24T08:08:17.564Z,478.13
2018-06-24T08:09:17.506Z,433.13
2018-06-24T08:10:17.408Z,500.63
2018-06-24T08:11:17.347Z,461.25
2018-06-24T08:12:17.246Z,455.63
2018-06-24T08:13:17.167Z,427.50
2018-06-24T08:14:17.081Z,523.13
2018-06-24T08:15:17.008Z,393.75
2018-06-24T08:16:16.920Z,399.38
2018-06-24T08:17:16.843Z,405.00
2018-06-24T08:18:16.754Z,371.25
2018-06-24T08:19:16.692Z,286.88
2018-06-24T08:20:16.599Z,281.25
2018-06-24T08:21:16.523Z,275.63
2018-06-24T08:22:16.437Z,270.00
2018-06-24T08:23:16.357Z,202.50
2018-06-24T08:24:16.270Z,236.25
2018-06-24T08:25:16.198Z,303.75
2018-06-24T08:26:16.112Z,191.25
2018-06-24T08:27:16.035Z,196.88
2018-06-24T08:28:15.959Z,196.88
2018-06-24T08:29:15.867Z,174.38
2018-06-24T08:30:15.793Z,253.13
2018-06-24T08:31:15.712Z,225.00
2018-06-24T08:32:15.638Z,315.00
2018-06-24T08:33:15.544Z,298.13
2018-06-24T08:34:15.470Z,343.13
2018-06-24T08:35:15.381Z,303.75
2018-06-24T08:36:15.309Z,343.13
2018-06-24T08:37:15.222Z,382.50
2018-06-24T08:38:15.148Z,376.88
2018-06-24T08:39:15.056Z,573.75
2018-06-24T08:40:14.983Z,495.00
2018-06-24T08:41:14.898Z,371.25
2018-06-24T08:42:14.823Z,427.50
2018-06-24T08:43:14.739Z,450.00
2018-06-24T08:44:14.664Z,315.00
2018-06-24T08:45:14.571Z,331.88
2018-06-24T08:46:14.496Z,540.00
2018-06-24T08:47:14.474Z,528.75
2018-06-24T08:48:14.338Z,360.00
2018-06-24T08:49:14.245Z,382.50
2018-06-24T08:50:14.169Z,388.13
2018-06-24T08:51:14.086Z,337.50
2018-06-24T08:52:14.010Z,455.63
2018-06-24T08:53:13.925Z,393.75
2018-06-24T08:54:13.924Z,523.13
2018-06-24T08:55:13.766Z,511.88
2018-06-24T08:56:13.693Z,511.88
2018-06-24T08:57:13.598Z,466.88
2018-06-24T08:58:13.522Z,472.50
2018-06-24T08:59:13.434Z,472.50
2018-06-24T09:00:13.359Z,534.38
2018-06-24T09:01:13.276Z,540.00
2018-06-24T09:02:13.200Z,551.25
2018-06-24T09:03:13.124Z,556.88
2018-06-24T09:04:13.037Z,680.63
2018-06-24T09:05:12.966Z,618.75
2018-06-24T09:06:12.877Z,495.00
2018-06-24T09:07:12.801Z,472.50
2018-06-24T09:08:12.713Z,489.38
2018-06-24T09:09:12.635Z,686.25
2018-06-24T09:10:12.561Z,658.13
2018-06-24T09:11:12.476Z,691.88
2018-06-24T09:12:12.396Z,810.00
2018-06-24T09:13:12.310Z,748.13
2018-06-24T09:14:12.223Z,618.75
2018-06-24T09:15:12.183Z,815.63
2018-06-24T09:16:12.064Z,781.88
2018-06-24T09:17:11.993Z,630.00
2018-06-24T09:18:11.917Z,714.38
2018-06-24T09:19:11.828Z,641.25
2018-06-24T09:20:11.748Z,776.25
2018-06-24T09:21:11.666Z,652.50
2018-06-24T09:22:11.654Z,528.75
2018-06-24T09:23:11.504Z,545.63
2018-06-24T09:24:11.431Z,675.00
2018-06-24T09:25:11.340Z,793.13
2018-06-24T09:26:11.264Z,883.13
2018-06-24T09:27:11.194Z,776.25
2018-06-24T09:28:11.112Z,585.00
2018-06-24T09:29:11.026Z,680.63
2018-06-24T09:30:10.939Z,922.50
2018-06-24T09:31:10.863Z,658.13
2018-06-24T09:32:10.787Z,686.25
2018-06-24T09:33:10.703Z,911.25
2018-06-24T09:34:10.638Z,742.50
2018-06-24T09:35:10.540Z,658.13
2018-06-24T09:36:10.468Z,630.00
2018-06-24T09:37:10.381Z,725.63
2018-06-24T09:38:10.307Z,720.00
2018-06-24T09:39:10.231Z,1091.25
2018-06-24T09:40:10.142Z,1096.88
2018-06-24T09:41:10.073Z,832.50
2018-06-24T09:42:09.976Z,748.13
2018-06-24T09:43:09.911Z,613.13
2018-06-24T09:44:09.830Z,922.50
2018-06-24T09:45:09.740Z,860.63
2018-06-24T09:46:09.666Z,888.75
2018-06-24T09:47:09.580Z,995.63
2018-06-24T09:48:09.504Z,781.88
2018-06-24T09:49:09.432Z,697.50
2018-06-24T09:50:09.346Z,1282.50
2018-06-24T09:51:09.266Z,1333.13
2018-06-24T09:52:09.190Z,1192.50
2018-06-24T09:53:09.106Z,776.25
2018-06-24T09:54:09.031Z,742.50
2018-06-24T09:55:08.958Z,742.50
2018-06-24T09:56:08.872Z,849.38
2018-06-24T09:57:08.793Z,545.63
2018-06-24T09:58:08.719Z,466.88
2018-06-24T09:59:08.632Z,720.00
2018-06-24T10:00:08.556Z,585.00
2018-06-24T10:01:08.466Z,669.38
2018-06-24T10:02:08.391Z,731.25
2018-06-24T10:03:08.318Z,826.88
2018-06-24T10:04:08.235Z,624.38
2018-06-24T10:05:08.160Z,590.63
2018-06-24T10:06:08.085Z,630.00
2018-06-24T10:07:07.991Z,663.75
2018-06-24T10:08:07.917Z,590.63
2018-06-24T10:09:07.845Z,489.38
2018-06-24T10:10:07.758Z,405.00
2018-06-24T10:11:07.729Z,466.88
2018-06-24T10:12:07.623Z,517.50
2018-06-24T10:13:07.522Z,562.50
2018-06-24T10:14:07.445Z,731.25
2018-06-24T10:15:07.376Z,1119.38
2018-06-24T10:16:07.287Z,1181.25
2018-06-24T10:17:07.220Z,1023.75
2018-06-24T10:18:07.120Z,815.63
2018-06-24T10:19:07.043Z,607.50
2018-06-24T10:20:06.968Z,691.88
2018-06-24T10:21:06.884Z,663.75
2018-06-24T10:22:06.808Z,787.50
2018-06-24T10:23:06.732Z,866.25
2018-06-24T10:24:06.645Z,838.13
2018-06-24T10:25:06.574Z,894.38
2018-06-24T10:26:06.488Z,843.75
2018-06-24T10:27:06.411Z,748.13
2018-06-24T10:28:06.347Z,793.13
2018-06-24T10:29:06.244Z,675.00
2018-06-24T10:30:06.170Z,641.25
2018-06-24T10:31:06.097Z,630.00
2018-06-24T10:32:06.013Z,405.00
2018-06-24T10:33:05.932Z,416.25
2018-06-24T10:34:05.856Z,703.13
2018-06-24T10:35:05.772Z,534.38
2018-06-24T10:36:05.697Z,736.88
2018-06-24T10:37:05.625Z,590.63
2018-06-24T10:38:05.538Z,680.63
2018-06-24T10:39:05.457Z,478.13
2018-06-24T10:40:05.382Z,680.63
2018-06-24T10:41:05.339Z,1006.88
2018-06-24T10:42:05.224Z,905.63
2018-06-24T10:43:05.139Z,956.25
2018-06-24T10:44:05.064Z,1096.88
2018-06-24T10:45:04.985Z,1372.50
2018-06-24T10:46:04.897Z,1468.13
2018-06-24T10:47:04.828Z,1490.63
2018-06-24T10:48:04.751Z,1327.50
2018-06-24T10:49:04.661Z,888.75
2018-06-24T10:50:04.584Z,562.50
2018-06-24T10:51:04.508Z,517.50
2018-06-24T10:52:04.421Z,365.63
2018-06-24T10:53:04.444Z,292.50
2018-06-24T10:54:04.278Z,371.25
2018-06-24T10:55:04.185Z,551.25
2018-06-24T10:56:04.110Z,787.50
2018-06-24T10:57:04.042Z,860.63
2018-06-24T10:58:03.966Z,956.25
2018-06-24T10:59:03.877Z,849.38
2018-06-24T11:00:03.802Z,759.38
2018-06-24T11:01:03.726Z,832.50
2018-06-24T11:02:03.687Z,1096.88
2018-06-24T11:03:03.564Z,1271.25
2018-06-24T11:04:03.479Z,1265.63
2018-06-24T11:05:03.399Z,1248.75
2018-06-24T11:06:03.324Z,1119.38
2018-06-24T11:07:03.234Z,961.88
2018-06-24T11:08:03.159Z,697.50
2018-06-24T11:09:03.089Z,691.88
2018-06-24T11:10:03.007Z,528.75
2018-06-24T11:11:02.925Z,658.13
2018-06-24T11:12:02.850Z,736.88
2018-06-24T11:13:02.767Z,562.50
2018-06-24T11:14:02.691Z,388.13
2018-06-24T11:15:02.632Z,365.63
2018-06-24T11:16:02.532Z,376.88
2018-06-24T11:17:02.448Z,388.13
2018-06-24T11:18:02.362Z,326.25
2018-06-24T11:19:02.289Z,343.13
2018-06-24T11:20:02.216Z,360.00
2018-06-24T11:21:02.127Z,405.00
2018-06-24T11:22:02.049Z,438.75
2018-06-24T11:23:01.976Z,427.50
2018-06-24T11:24:01.888Z,528.75
2018-06-24T11:25:01.828Z,855.00
2018-06-24T11:26:01.743Z,843.75
2018-06-24T11:27:01.652Z,888.75
2018-06-24T11:28:01.576Z,961.88
2018-06-24T11:29:01.490Z,961.88
2018-06-24T11:30:01.416Z,928.13
2018-06-24T11:31:01.404Z,1001.25
2018-06-24T11:32:01.256Z,826.88
2018-06-24T11:33:01.177Z,585.00
2018-06-24T11:34:01.090Z,511.88
2018-06-24T11:35:01.019Z,523.13
2018-06-24T11:36:00.943Z,607.50
2018-06-24T11:37:00.869Z,461.25
2018-06-24T11:38:00.777Z,331.88
2018-06-24T11:39:00.704Z,247.50
2018-06-24T11:40:00.613Z,151.88
2018-06-24T11:41:00.541Z,180.00
2018-06-24T11:42:00.492Z,354.38
2018-06-24T11:43:00.378Z,320.63
2018-06-24T11:44:00.306Z,365.63
2018-06-24T11:45:00.219Z,354.38
2018-06-24T11:46:00.146Z,275.63
2018-06-24T11:47:00.067Z,393.75
2018-06-24T11:47:59.980Z,438.75
2018-06-24T11:48:59.901Z,545.63
2018-06-24T11:49:59.813Z,635.63
2018-06-24T11:50:59.743Z,736.88
2018-06-24T11:51:59.670Z,776.25
2018-06-24T11:52:59.577Z,832.50
2018-06-24T11:53:59.502Z,984.38
2018-06-24T11:54:59.416Z,1040.63
2018-06-24T11:55:59.341Z,1125.00
2018-06-24T11:56:59.298Z,1108.13
2018-06-24T11:57:59.183Z,1074.38
2018-06-24T11:58:59.091Z,945.00
2018-06-24T11:59:59.014Z,759.38
2018-06-24T12:00:58.943Z,787.50
2018-06-24T12:01:58.896Z,618.75
2018-06-24T12:02:58.785Z,360.00
2018-06-24T12:03:58.712Z,309.38
2018-06-24T12:04:58.618Z,371.25
2018-06-24T12:05:58.543Z,360.00
2018-06-24T12:06:58.583Z,405.00
2018-06-24T12:07:58.383Z,382.50
2018-06-24T12:08:58.304Z,433.13
2018-06-24T12:09:58.220Z,489.38
2018-06-24T12:10:58.151Z,540.00
2018-06-24T12:11:58.057Z,618.75
2018-06-24T12:12:57.985Z,697.50
2018-06-24T12:13:57.910Z,528.75
2018-06-24T12:14:57.816Z,573.75
2018-06-24T12:15:57.741Z,680.63
2018-06-24T12:16:57.670Z,686.25
2018-06-24T12:17:57.584Z,725.63
2018-06-24T12:18:57.511Z,765.00
2018-06-24T12:19:57.423Z,753.75
2018-06-24T12:20:57.344Z,703.13
2018-06-24T12:21:57.258Z,804.38
2018-06-24T12:22:57.186Z,646.88
2018-06-24T12:23:57.113Z,669.38
2018-06-24T12:24:57.019Z,708.75
2018-06-24T12:25:56.958Z,675.00
2018-06-24T12:26:56.868Z,742.50
2018-06-24T12:27:56.786Z,759.38
2018-06-24T12:28:56.709Z,618.75
2018-06-24T12:29:56.622Z,736.88
2018-06-24T12:30:56.546Z,765.00
2018-06-24T12:31:56.471Z,916.88
2018-06-24T12:32:56.388Z,883.13
2018-06-24T12:33:56.313Z,984.38
2018-06-24T12:34:56.236Z,900.00
2018-06-24T12:35:56.148Z,877.50
2018-06-24T12:36:56.081Z,810.00
2018-06-24T12:37:55.983Z,545.63
2018-06-24T12:38:55.910Z,894.38
2018-06-24T12:39:55.836Z,714.38
2018-06-24T12:40:55.744Z,562.50
2018-06-24T12:41:55.682Z,388.13